Aérodrome :
LOGIN :

S'inscrire | Disclaimer

   EN    FR    IT 

 










Légende :    VFR   VFR Marginal   IFR   IFR Intensif   IFR Très Intensif
Visi : 
Plafond : 
>= 8 km
>= 3000ft
5 à 8 km
1000 à 3000 ft
1500m à 5 km
500 à 1000 ft
800 à 1500m
200 à 500 ft
< 800m
< 200 ft
Symboles :   Orages  Brouillard  Fortes neiges  Fortes précipitations  Vent > 20 kt
SIGMETs :   Divers  Orages  Givrage  Turbulence  Onde Orograph.  Cendres Volcan.






- Altitude de l'aérodrome : 1058 ft
- Code IATA : SCN


EDDR - Saarbrücken

DERNIER METAR :
  • 280720Z 23007KT 9999 BKN005 01/M00 Q0995 TEMPO 4000 -SNRA BKN004

METARs EXPIRÉS :
  • 280650Z 21006KT 9999 BKN005 01/00 Q0995 TEMPO 4000 -SNRA BKN004
  • 280620Z 20005KT 170V230 9999 -RA BKN005 01/00 Q0995 TEMPO 4000 -SNRA BKN004
  • 280550Z 20004KT 160V240 9999 -RA BKN006 01/M00 Q0995 TEMPO 4000 -SNRA BKN004
  • 280520Z 20005KT 4200 -SNRA BKN006 00/M00 Q0995 TEMPO 2500 SNRA BKN004
  • 280450Z 19006KT 9999 -RA FEW006 SCT015 BKN035 01/00 Q0995 TEMPO 4000 -SNRA BKN006

TAF TAF EDDR
Valide du 28 à 06h jusqu'au 29 à 06h UTC


280500Z 2806/2906 20004KT 9999 SCT005 BKN015
TEMPO 2806/2809 BKN005
PROB40
TEMPO 2806/2811 3000 SNRA BKN004
BECMG 2810/2813 29005KT
PROB30
TEMPO 2811/2821 3000 -SHSN BKN008 BKN015TCU
BECMG 2820/2822 BKN010
TEMPO 2822/2906 3000 -SN BR BKN007



MET'MAP, la Météo Aéronautique d'un coup d'oeil ! - Copyright ORBIFLY Décembre 2007 - Disclaimer

ORBIFLY MET'MAP TEAM :

Programmation & Développement : Alexandra Zaïnal
Sur une idée originale de : Baudouin d'Aumeries
Assistance à la programmation : Marc-Olivier Méhu
Soutien technique & logistique : Manuel Goepfert

Contact : metmap@orbifly.com




SOURCES & CREDITS :

   NOAA